sensor_id;sensor_type;location;lat;lon;timestamp;pressure;altitude;pressure_sealevel;temperature;humidity
80644;BME280;70010;60.224;24.712;2023-05-16T00:00:28;101182.09;;;12.23;45.02
80644;BME280;70010;60.224;24.712;2023-05-16T00:02:53;101175.81;;;12.39;45.28
80644;BME280;70010;60.224;24.712;2023-05-16T00:05:18;101179.97;;;11.62;47.11
80644;BME280;70010;60.224;24.712;2023-05-16T00:07:45;101173.67;;;12.05;47.55
80644;BME280;70010;60.224;24.712;2023-05-16T00:10:10;101169.48;;;12.27;47.19
80644;BME280;70010;60.224;24.712;2023-05-16T00:12:35;101157.92;;;12.26;47.00
80644;BME280;70010;60.224;24.712;2023-05-16T00:15:01;101163.25;;;11.93;47.94
80644;BME280;70010;60.224;24.712;2023-05-16T00:17:27;101164.50;;;12.03;47.90
80644;BME280;70010;60.224;24.712;2023-05-16T00:19:52;101156.68;;;12.02;47.74
80644;BME280;70010;60.224;24.712;2023-05-16T00:22:18;101155.09;;;11.41;48.30
80644;BME280;70010;60.224;24.712;2023-05-16T00:24:44;101154.20;;;11.61;48.02
80644;BME280;70010;60.224;24.712;2023-05-16T00:27:09;101151.95;;;11.79;47.77
80644;BME280;70010;60.224;24.712;2023-05-16T00:29:35;101146.01;;;11.74;47.91
80644;BME280;70010;60.224;24.712;2023-05-16T00:32:01;101140.66;;;11.77;48.01
80644;BME280;70010;60.224;24.712;2023-05-16T00:34:26;101134.99;;;11.44;47.62
80644;BME280;70010;60.224;24.712;2023-05-16T00:36:51;101136.06;;;11.38;47.77
80644;BME280;70010;60.224;24.712;2023-05-16T00:39:17;101132.33;;;11.65;47.58
80644;BME280;70010;60.224;24.712;2023-05-16T00:41:44;101127.37;;;11.87;47.31
80644;BME280;70010;60.224;24.712;2023-05-16T00:44:09;101117.49;;;11.65;47.92
80644;BME280;70010;60.224;24.712;2023-05-16T00:46:34;101111.11;;;11.44;47.85
80644;BME280;70010;60.224;24.712;2023-05-16T00:48:59;101115.76;;;11.40;48.51
80644;BME280;70010;60.224;24.712;2023-05-16T00:51:25;101112.86;;;11.59;48.57
80644;BME280;70010;60.224;24.712;2023-05-16T00:53:51;101108.96;;;11.41;48.90
80644;BME280;70010;60.224;24.712;2023-05-16T00:56:16;101107.31;;;11.52;49.18
80644;BME280;70010;60.224;24.712;2023-05-16T00:58:41;101104.34;;;11.03;50.65
80644;BME280;70010;60.224;24.712;2023-05-16T01:01:06;101100.80;;;11.16;49.90
80644;BME280;70010;60.224;24.712;2023-05-16T01:03:32;101099.13;;;11.09;50.60
80644;BME280;70010;60.224;24.712;2023-05-16T01:05:58;101096.78;;;11.48;50.52
80644;BME280;70010;60.224;24.712;2023-05-16T01:08:23;101089.72;;;11.13;50.53
80644;BME280;70010;60.224;24.712;2023-05-16T01:10:58;101087.50;;;11.31;50.50
80644;BME280;70010;60.224;24.712;2023-05-16T01:13:21;101089.84;;;11.34;50.50
80644;BME280;70010;60.224;24.712;2023-05-16T01:15:45;101088.45;;;11.81;47.28
80644;BME280;70010;60.224;24.712;2023-05-16T01:18:13;101078.73;;;12.47;46.37
80644;BME280;70010;60.224;24.712;2023-05-16T01:20:36;101083.30;;;12.28;47.74
80644;BME280;70010;60.224;24.712;2023-05-16T01:23:12;101090.13;;;11.52;49.63
80644;BME280;70010;60.224;24.712;2023-05-16T01:25:30;101080.80;;;11.32;49.76
80644;BME280;70010;60.224;24.712;2023-05-16T01:27:48;101076.01;;;11.39;49.49
80644;BME280;70010;60.224;24.712;2023-05-16T01:30:15;101076.36;;;10.97;50.25
80644;BME280;70010;60.224;24.712;2023-05-16T01:32:37;101074.46;;;10.86;49.97
80644;BME280;70010;60.224;24.712;2023-05-16T01:35:04;101072.09;;;11.54;48.76
80644;BME280;70010;60.224;24.712;2023-05-16T01:37:32;101068.91;;;11.54;47.99
80644;BME280;70010;60.224;24.712;2023-05-16T01:39:56;101064.84;;;11.60;47.22
80644;BME280;70010;60.224;24.712;2023-05-16T01:42:20;101062.05;;;11.76;46.90
80644;BME280;70010;60.224;24.712;2023-05-16T01:44:48;101062.86;;;10.96;47.86
80644;BME280;70010;60.224;24.712;2023-05-16T01:47:12;101055.88;;;11.93;46.64
80644;BME280;70010;60.224;24.712;2023-05-16T01:49:39;101055.04;;;11.27;47.53
80644;BME280;70010;60.224;24.712;2023-05-16T01:52:06;101051.70;;;11.34;47.49
80644;BME280;70010;60.224;24.712;2023-05-16T01:54:30;101046.43;;;12.47;44.47
80644;BME280;70010;60.224;24.712;2023-05-16T01:56:52;101046.48;;;11.86;45.51
80644;BME280;70010;60.224;24.712;2023-05-16T01:59:18;101040.74;;;11.78;45.77
80644;BME280;70010;60.224;24.712;2023-05-16T02:01:41;101041.67;;;11.64;46.03
80644;BME280;70010;60.224;24.712;2023-05-16T02:04:07;101034.98;;;11.96;45.65
80644;BME280;70010;60.224;24.712;2023-05-16T02:06:33;101035.25;;;11.33;45.37
80644;BME280;70010;60.224;24.712;2023-05-16T02:08:58;101035.28;;;11.32;45.51
80644;BME280;70010;60.224;24.712;2023-05-16T02:11:24;101035.90;;;11.49;46.17
80644;BME280;70010;60.224;24.712;2023-05-16T02:13:49;101031.86;;;11.96;45.08
80644;BME280;70010;60.224;24.712;2023-05-16T02:16:14;101033.68;;;11.51;46.06
80644;BME280;70010;60.224;24.712;2023-05-16T02:18:40;101023.44;;;11.66;45.74
80644;BME280;70010;60.224;24.712;2023-05-16T02:21:05;101021.07;;;12.31;43.97
80644;BME280;70010;60.224;24.712;2023-05-16T02:23:31;101014.48;;;12.02;44.22
80644;BME280;70010;60.224;24.712;2023-05-16T02:25:56;101014.99;;;13.09;42.13
80644;BME280;70010;60.224;24.712;2023-05-16T02:28:21;101016.13;;;12.93;42.41
80644;BME280;70010;60.224;24.712;2023-05-16T02:30:56;101016.51;;;12.80;42.30
80644;BME280;70010;60.224;24.712;2023-05-16T02:33:12;101013.67;;;11.73;43.60
80644;BME280;70010;60.224;24.712;2023-05-16T02:35:38;101014.63;;;11.58;44.46
80644;BME280;70010;60.224;24.712;2023-05-16T02:38:03;101009.23;;;11.69;44.58
80644;BME280;70010;60.224;24.712;2023-05-16T02:40:29;101006.94;;;11.88;44.72
80644;BME280;70010;60.224;24.712;2023-05-16T02:42:54;101000.47;;;12.27;43.44
80644;BME280;70010;60.224;24.712;2023-05-16T02:45:20;100996.90;;;12.63;43.39
80644;BME280;70010;60.224;24.712;2023-05-16T02:47:45;100993.41;;;12.42;43.61
80644;BME280;70010;60.224;24.712;2023-05-16T02:50:11;100990.61;;;12.54;43.13
80644;BME280;70010;60.224;24.712;2023-05-16T02:52:36;100992.28;;;12.36;43.78
80644;BME280;70010;60.224;24.712;2023-05-16T02:55:02;100990.41;;;12.23;44.16
80644;BME280;70010;60.224;24.712;2023-05-16T02:57:27;100989.96;;;12.57;43.73
80644;BME280;70010;60.224;24.712;2023-05-16T02:59:52;100990.14;;;12.23;43.91
80644;BME280;70010;60.224;24.712;2023-05-16T03:02:17;100988.26;;;12.37;43.43
80644;BME280;70010;60.224;24.712;2023-05-16T03:04:43;100984.24;;;12.66;43.64
80644;BME280;70010;60.224;24.712;2023-05-16T03:07:08;100978.82;;;12.19;44.49
80644;BME280;70010;60.224;24.712;2023-05-16T03:09:34;100977.88;;;12.42;44.14
80644;BME280;70010;60.224;24.712;2023-05-16T03:11:59;100972.28;;;12.69;43.79
80644;BME280;70010;60.224;24.712;2023-05-16T03:14:25;100973.51;;;12.33;44.49
80644;BME280;70010;60.224;24.712;2023-05-16T03:16:50;100970.73;;;12.76;43.31
80644;BME280;70010;60.224;24.712;2023-05-16T03:19:15;100972.77;;;12.65;44.07
80644;BME280;70010;60.224;24.712;2023-05-16T03:21:41;100968.06;;;12.41;44.28
80644;BME280;70010;60.224;24.712;2023-05-16T03:24:07;100965.56;;;13.02;43.09
80644;BME280;70010;60.224;24.712;2023-05-16T03:26:32;100964.08;;;13.65;41.44
80644;BME280;70010;60.224;24.712;2023-05-16T03:28:57;100960.75;;;13.45;41.51
80644;BME280;70010;60.224;24.712;2023-05-16T03:31:23;100962.39;;;13.02;41.88
80644;BME280;70010;60.224;24.712;2023-05-16T03:33:48;100956.68;;;15.13;38.12
80644;BME280;70010;60.224;24.712;2023-05-16T03:36:14;100954.76;;;14.13;39.14
80644;BME280;70010;60.224;24.712;2023-05-16T03:38:40;100946.74;;;15.54;36.94
80644;BME280;70010;60.224;24.712;2023-05-16T03:41:05;100942.18;;;15.34;37.21
80644;BME280;70010;60.224;24.712;2023-05-16T03:43:31;100940.58;;;15.29;36.71
80644;BME280;70010;60.224;24.712;2023-05-16T03:45:56;100938.20;;;15.15;36.78
80644;BME280;70010;60.224;24.712;2023-05-16T03:48:21;100945.80;;;14.11;38.82
80644;BME280;70010;60.224;24.712;2023-05-16T03:50:47;100940.86;;;14.62;39.04
80644;BME280;70010;60.224;24.712;2023-05-16T03:53:13;100940.23;;;13.94;38.83
80644;BME280;70010;60.224;24.712;2023-05-16T03:55:38;100938.09;;;13.98;39.27
80644;BME280;70010;60.224;24.712;2023-05-16T03:58:03;100930.90;;;13.19;41.22
80644;BME280;70010;60.224;24.712;2023-05-16T04:00:29;100924.15;;;12.85;41.71
80644;BME280;70010;60.224;24.712;2023-05-16T04:02:54;100921.71;;;14.57;38.30
80644;BME280;70010;60.224;24.712;2023-05-16T04:05:19;100915.93;;;15.01;37.02
80644;BME280;70010;60.224;24.712;2023-05-16T04:07:44;100911.82;;;15.39;36.53
80644;BME280;70010;60.224;24.712;2023-05-16T04:10:11;100908.17;;;15.54;36.85
80644;BME280;70010;60.224;24.712;2023-05-16T04:12:36;100907.74;;;15.87;36.23
80644;BME280;70010;60.224;24.712;2023-05-16T04:15:02;100915.50;;;14.38;38.25
80644;BME280;70010;60.224;24.712;2023-05-16T04:17:27;100917.40;;;14.02;39.46
80644;BME280;70010;60.224;24.712;2023-05-16T04:19:52;100908.13;;;14.49;37.68
80644;BME280;70010;60.224;24.712;2023-05-16T04:22:20;100909.47;;;15.58;35.82
80644;BME280;70010;60.224;24.712;2023-05-16T04:24:43;100909.07;;;14.59;38.27
80644;BME280;70010;60.224;24.712;2023-05-16T04:27:08;100909.69;;;14.80;37.66
80644;BME280;70010;60.224;24.712;2023-05-16T04:29:34;100916.20;;;16.37;34.62
80644;BME280;70010;60.224;24.712;2023-05-16T04:31:59;100933.70;;;14.48;38.27
80644;BME280;70010;60.224;24.712;2023-05-16T04:34:24;100929.38;;;13.96;38.47
80644;BME280;70010;60.224;24.712;2023-05-16T04:36:50;100937.94;;;14.66;37.56
80644;BME280;70010;60.224;24.712;2023-05-16T04:39:15;100937.47;;;14.88;37.49
80644;BME280;70010;60.224;24.712;2023-05-16T04:41:40;100935.25;;;14.81;37.56
80644;BME280;70010;60.224;24.712;2023-05-16T04:44:06;100930.01;;;16.43;34.29
80644;BME280;70010;60.224;24.712;2023-05-16T04:46:32;100935.22;;;14.53;37.12
80644;BME280;70010;60.224;24.712;2023-05-16T04:48:57;100931.86;;;15.41;36.08
80644;BME280;70010;60.224;24.712;2023-05-16T04:51:22;100931.99;;;16.09;35.47
80644;BME280;70010;60.224;24.712;2023-05-16T04:53:48;100942.90;;;14.47;37.95
80644;BME280;70010;60.224;24.712;2023-05-16T04:56:13;100939.33;;;15.50;35.91
80644;BME280;70010;60.224;24.712;2023-05-16T04:58:38;100944.03;;;15.22;36.75
80644;BME280;70010;60.224;24.712;2023-05-16T05:01:04;100954.24;;;14.85;37.25
80644;BME280;70010;60.224;24.712;2023-05-16T05:03:29;100950.99;;;14.20;38.55
80644;BME280;70010;60.224;24.712;2023-05-16T05:05:54;100951.19;;;15.45;36.63
80644;BME280;70010;60.224;24.712;2023-05-16T05:08:20;100958.50;;;14.79;37.90
80644;BME280;70010;60.224;24.712;2023-05-16T05:10:45;100961.48;;;14.90;37.74
80644;BME280;70010;60.224;24.712;2023-05-16T05:13:10;100954.37;;;14.61;37.56
80644;BME280;70010;60.224;24.712;2023-05-16T05:15:35;100948.30;;;13.96;39.25
80644;BME280;70010;60.224;24.712;2023-05-16T05:18:01;100946.12;;;14.90;37.43
80644;BME280;70010;60.224;24.712;2023-05-16T05:20:26;100945.09;;;16.58;34.57
80644;BME280;70010;60.224;24.712;2023-05-16T05:22:52;100949.34;;;14.24;38.18
80644;BME280;70010;60.224;24.712;2023-05-16T05:25:17;100935.82;;;16.31;35.15
80644;BME280;70010;60.224;24.712;2023-05-16T05:27:42;100935.21;;;15.32;36.10
80644;BME280;70010;60.224;24.712;2023-05-16T05:30:09;100935.94;;;15.65;36.05
80644;BME280;70010;60.224;24.712;2023-05-16T05:32:34;100930.40;;;14.90;37.29
80644;BME280;70010;60.224;24.712;2023-05-16T05:34:59;100929.85;;;15.55;35.84
80644;BME280;70010;60.224;24.712;2023-05-16T05:37:25;100931.94;;;14.88;37.63
80644;BME280;70010;60.224;24.712;2023-05-16T05:39:51;100929.98;;;13.98;38.93
80644;BME280;70010;60.224;24.712;2023-05-16T05:42:16;100934.50;;;13.46;40.45
80644;BME280;70010;60.224;24.712;2023-05-16T05:44:42;100939.52;;;14.92;37.70
80644;BME280;70010;60.224;24.712;2023-05-16T05:47:07;100940.73;;;13.76;39.88
80644;BME280;70010;60.224;24.712;2023-05-16T05:49:33;100936.00;;;15.14;37.40
80644;BME280;70010;60.224;24.712;2023-05-16T05:51:58;100940.05;;;13.72;40.02
80644;BME280;70010;60.224;24.712;2023-05-16T05:54:24;100940.63;;;14.25;39.40
80644;BME280;70010;60.224;24.712;2023-05-16T05:56:49;100943.97;;;13.81;39.85
80644;BME280;70010;60.224;24.712;2023-05-16T05:59:15;100936.84;;;14.98;38.12
80644;BME280;70010;60.224;24.712;2023-05-16T06:01:40;100946.10;;;13.41;41.36
80644;BME280;70010;60.224;24.712;2023-05-16T06:04:05;100950.01;;;13.09;41.93
80644;BME280;70010;60.224;24.712;2023-05-16T06:06:31;100958.71;;;14.14;39.80
80644;BME280;70010;60.224;24.712;2023-05-16T06:08:57;100960.45;;;13.38;40.52
80644;BME280;70010;60.224;24.712;2023-05-16T06:11:22;100961.76;;;13.53;41.00
80644;BME280;70010;60.224;24.712;2023-05-16T06:13:47;100961.07;;;14.09;39.62
80644;BME280;70010;60.224;24.712;2023-05-16T06:16:13;100979.62;;;14.42;39.07
80644;BME280;70010;60.224;24.712;2023-05-16T06:18:38;100968.18;;;13.61;40.80
80644;BME280;70010;60.224;24.712;2023-05-16T06:21:04;100973.68;;;14.99;38.19
80644;BME280;70010;60.224;24.712;2023-05-16T06:23:28;100976.67;;;12.92;41.88
80644;BME280;70010;60.224;24.712;2023-05-16T06:25:54;100994.82;;;13.09;42.40
80644;BME280;70010;60.224;24.712;2023-05-16T06:28:19;100981.46;;;14.03;40.28
80644;BME280;70010;60.224;24.712;2023-05-16T06:30:45;100962.55;;;13.59;40.34
80644;BME280;70010;60.224;24.712;2023-05-16T06:33:10;100952.22;;;12.85;42.05
80644;BME280;70010;60.224;24.712;2023-05-16T06:35:35;100954.12;;;13.47;41.37
80644;BME280;70010;60.224;24.712;2023-05-16T06:38:01;100938.30;;;15.72;37.44
80644;BME280;70010;60.224;24.712;2023-05-16T06:40:26;100947.33;;;13.93;40.85
80644;BME280;70010;60.224;24.712;2023-05-16T06:42:51;100939.21;;;12.89;43.01
80644;BME280;70010;60.224;24.712;2023-05-16T06:45:17;100947.00;;;12.93;42.98
80644;BME280;70010;60.224;24.712;2023-05-16T06:47:43;100940.53;;;12.66;43.66
80644;BME280;70010;60.224;24.712;2023-05-16T06:50:08;100938.83;;;12.79;44.74
80644;BME280;70010;60.224;24.712;2023-05-16T06:52:33;100940.27;;;11.91;47.59
80644;BME280;70010;60.224;24.712;2023-05-16T06:54:59;100942.86;;;13.19;43.70
80644;BME280;70010;60.224;24.712;2023-05-16T06:57:24;100953.89;;;12.28;45.36
80644;BME280;70010;60.224;24.712;2023-05-16T06:59:50;100958.02;;;12.57;45.13
80644;BME280;70010;60.224;24.712;2023-05-16T07:02:15;100960.65;;;13.55;43.66
80644;BME280;70010;60.224;24.712;2023-05-16T07:04:41;100968.03;;;13.14;45.01
80644;BME280;70010;60.224;24.712;2023-05-16T07:07:06;100964.44;;;14.19;43.30
80644;BME280;70010;60.224;24.712;2023-05-16T07:09:31;100966.06;;;12.82;46.53
80644;BME280;70010;60.224;24.712;2023-05-16T07:11:57;100959.51;;;13.55;45.71
80644;BME280;70010;60.224;24.712;2023-05-16T07:14:22;100957.24;;;13.10;46.75
80644;BME280;70010;60.224;24.712;2023-05-16T07:16:48;100960.14;;;12.84;49.05
80644;BME280;70010;60.224;24.712;2023-05-16T07:19:13;100962.15;;;12.88;49.33
80644;BME280;70010;60.224;24.712;2023-05-16T07:21:38;100958.96;;;13.94;47.38
80644;BME280;70010;60.224;24.712;2023-05-16T07:24:04;100953.69;;;13.34;49.63
80644;BME280;70010;60.224;24.712;2023-05-16T07:26:28;100959.34;;;13.03;52.24
80644;BME280;70010;60.224;24.712;2023-05-16T07:28:55;100962.19;;;13.13;51.71
80644;BME280;70010;60.224;24.712;2023-05-16T07:31:20;100957.87;;;13.61;51.23
80644;BME280;70010;60.224;24.712;2023-05-16T07:33:46;100943.76;;;13.37;51.11
80644;BME280;70010;60.224;24.712;2023-05-16T07:36:11;100942.09;;;14.47;49.36
80644;BME280;70010;60.224;24.712;2023-05-16T07:41:02;100924.49;;;15.92;45.39
80644;BME280;70010;60.224;24.712;2023-05-16T07:43:28;100919.56;;;14.92;48.46
80644;BME280;70010;60.224;24.712;2023-05-16T07:45:53;100923.19;;;14.50;48.20
80644;BME280;70010;60.224;24.712;2023-05-16T07:48:19;100912.16;;;14.66;47.96
80644;BME280;70010;60.224;24.712;2023-05-16T07:50:44;100911.65;;;16.28;44.24
80644;BME280;70010;60.224;24.712;2023-05-16T07:53:10;100917.29;;;13.70;50.98
80644;BME280;70010;60.224;24.712;2023-05-16T07:55:36;100919.18;;;14.39;49.71
80644;BME280;70010;60.224;24.712;2023-05-16T07:58:01;100918.96;;;14.29;49.98
80644;BME280;70010;60.224;24.712;2023-05-16T08:00:26;100924.83;;;14.46;49.67
80644;BME280;70010;60.224;24.712;2023-05-16T08:02:51;100912.39;;;15.08;48.63
80644;BME280;70010;60.224;24.712;2023-05-16T08:05:17;100917.75;;;15.54;46.99
80644;BME280;70010;60.224;24.712;2023-05-16T08:07:42;100931.08;;;14.48;49.57
80644;BME280;70010;60.224;24.712;2023-05-16T08:10:08;100937.57;;;13.09;54.96
80644;BME280;70010;60.224;24.712;2023-05-16T08:12:33;100936.80;;;13.59;53.36
80644;BME280;70010;60.224;24.712;2023-05-16T08:14:58;100939.18;;;13.39;53.26
80644;BME280;70010;60.224;24.712;2023-05-16T08:17:24;100945.28;;;13.96;51.68
80644;BME280;70010;60.224;24.712;2023-05-16T08:19:49;100941.19;;;14.56;50.64
80644;BME280;70010;60.224;24.712;2023-05-16T08:22:14;100949.04;;;12.87;54.50
80644;BME280;70010;60.224;24.712;2023-05-16T08:24:39;100943.89;;;13.34;54.16
80644;BME280;70010;60.224;24.712;2023-05-16T08:27:05;100941.07;;;13.15;54.82
80644;BME280;70010;60.224;24.712;2023-05-16T08:29:30;100947.91;;;12.75;56.66
80644;BME280;70010;60.224;24.712;2023-05-16T08:31:56;100952.20;;;13.35;55.89
80644;BME280;70010;60.224;24.712;2023-05-16T08:34:21;100951.56;;;14.81;52.27
80644;BME280;70010;60.224;24.712;2023-05-16T08:36:47;100945.41;;;15.32;50.15
80644;BME280;70010;60.224;24.712;2023-05-16T08:39:13;100943.15;;;14.66;50.88
80644;BME280;70010;60.224;24.712;2023-05-16T08:41:38;100942.38;;;14.93;49.78
80644;BME280;70010;60.224;24.712;2023-05-16T08:44:03;100944.14;;;15.46;48.94
80644;BME280;70010;60.224;24.712;2023-05-16T08:46:31;100947.12;;;13.44;54.38
80644;BME280;70010;60.224;24.712;2023-05-16T08:48:58;100943.53;;;13.21;54.89
80644;BME280;70010;60.224;24.712;2023-05-16T08:51:20;100943.58;;;12.14;57.42
80644;BME280;70010;60.224;24.712;2023-05-16T08:53:51;100938.14;;;11.43;61.34
80644;BME280;70010;60.224;24.712;2023-05-16T08:56:12;100936.12;;;13.14;56.17
80644;BME280;70010;60.224;24.712;2023-05-16T08:58:37;100940.29;;;13.22;56.07
80644;BME280;70010;60.224;24.712;2023-05-16T09:01:03;100933.64;;;13.19;54.18
80644;BME280;70010;60.224;24.712;2023-05-16T09:03:27;100937.01;;;11.69;60.30
80644;BME280;70010;60.224;24.712;2023-05-16T09:05:53;100927.26;;;12.62;56.27
80644;BME280;70010;60.224;24.712;2023-05-16T09:08:18;100932.87;;;12.88;56.25
80644;BME280;70010;60.224;24.712;2023-05-16T09:10:43;100933.35;;;12.16;58.46
80644;BME280;70010;60.224;24.712;2023-05-16T09:13:09;100922.55;;;12.54;57.54
80644;BME280;70010;60.224;24.712;2023-05-16T09:15:34;100921.02;;;12.54;59.19
80644;BME280;70010;60.224;24.712;2023-05-16T09:18:00;100918.11;;;12.79;57.30
80644;BME280;70010;60.224;24.712;2023-05-16T09:20:25;100904.62;;;13.04;56.07
80644;BME280;70010;60.224;24.712;2023-05-16T09:22:53;100897.67;;;12.97;55.83
80644;BME280;70010;60.224;24.712;2023-05-16T09:25:17;100896.24;;;13.42;53.57
80644;BME280;70010;60.224;24.712;2023-05-16T09:27:42;100893.96;;;13.85;52.64
80644;BME280;70010;60.224;24.712;2023-05-16T09:30:08;100890.13;;;13.27;55.20
80644;BME280;70010;60.224;24.712;2023-05-16T09:32:33;100889.95;;;11.80;59.78
80644;BME280;70010;60.224;24.712;2023-05-16T09:34:58;100883.23;;;13.12;55.56
80644;BME280;70010;60.224;24.712;2023-05-16T09:37:24;100863.50;;;12.66;57.30
80644;BME280;70010;60.224;24.712;2023-05-16T09:39:50;100850.27;;;14.75;51.12
80644;BME280;70010;60.224;24.712;2023-05-16T09:42:15;100837.55;;;15.54;48.62
80644;BME280;70010;60.224;24.712;2023-05-16T09:44:41;100842.53;;;13.74;53.42
80644;BME280;70010;60.224;24.712;2023-05-16T09:47:06;100841.37;;;13.66;53.81
80644;BME280;70010;60.224;24.712;2023-05-16T09:49:31;100827.96;;;14.39;51.96
80644;BME280;70010;60.224;24.712;2023-05-16T09:51:59;100837.45;;;11.39;61.31
80644;BME280;70010;60.224;24.712;2023-05-16T09:54:29;100830.73;;;12.14;59.84
80644;BME280;70010;60.224;24.712;2023-05-16T09:56:49;100837.28;;;12.82;56.68
80644;BME280;70010;60.224;24.712;2023-05-16T09:59:13;100826.15;;;14.86;52.13
80644;BME280;70010;60.224;24.712;2023-05-16T10:01:37;100835.05;;;14.22;52.84
80644;BME280;70010;60.224;24.712;2023-05-16T10:04:02;100830.24;;;12.15;59.83
80644;BME280;70010;60.224;24.712;2023-05-16T10:06:28;100814.00;;;14.42;53.21
80644;BME280;70010;60.224;24.712;2023-05-16T10:08:53;100804.59;;;15.44;50.75
80644;BME280;70010;60.224;24.712;2023-05-16T10:11:19;100805.41;;;13.60;55.51
80644;BME280;70010;60.224;24.712;2023-05-16T10:13:45;100805.16;;;13.35;55.66
80644;BME280;70010;60.224;24.712;2023-05-16T10:16:11;100799.96;;;14.41;53.10
80644;BME280;70010;60.224;24.712;2023-05-16T10:18:37;100803.10;;;13.54;56.26
80644;BME280;70010;60.224;24.712;2023-05-16T10:21:04;100790.29;;;13.14;57.64
80644;BME280;70010;60.224;24.712;2023-05-16T10:23:27;100783.10;;;13.63;55.01
80644;BME280;70010;60.224;24.712;2023-05-16T10:25:54;100786.94;;;14.37;53.67
80644;BME280;70010;60.224;24.712;2023-05-16T10:28:18;100789.86;;;12.86;58.09
80644;BME280;70010;60.224;24.712;2023-05-16T10:30:45;100781.90;;;12.85;57.88
80644;BME280;70010;60.224;24.712;2023-05-16T10:33:11;100773.33;;;13.64;55.79
80644;BME280;70010;60.224;24.712;2023-05-16T10:35:34;100778.44;;;12.39;59.93
80644;BME280;70010;60.224;24.712;2023-05-16T10:37:59;100776.48;;;13.10;58.34
80644;BME280;70010;60.224;24.712;2023-05-16T10:40:24;100760.33;;;13.19;57.64
80644;BME280;70010;60.224;24.712;2023-05-16T10:42:55;100765.83;;;13.36;56.60
80644;BME280;70010;60.224;24.712;2023-05-16T10:45:16;100771.07;;;14.39;54.11
80644;BME280;70010;60.224;24.712;2023-05-16T10:47:45;100764.05;;;12.11;60.08
80644;BME280;70010;60.224;24.712;2023-05-16T10:50:07;100759.99;;;13.31;57.74
80644;BME280;70010;60.224;24.712;2023-05-16T10:52:32;100752.05;;;12.29;58.54
80644;BME280;70010;60.224;24.712;2023-05-16T10:55:01;100747.05;;;12.53;59.12
80644;BME280;70010;60.224;24.712;2023-05-16T10:57:23;100748.60;;;13.13;57.34
80644;BME280;70010;60.224;24.712;2023-05-16T10:59:50;100734.67;;;12.79;58.18
80644;BME280;70010;60.224;24.712;2023-05-16T11:02:22;100740.13;;;12.84;58.17
80644;BME280;70010;60.224;24.712;2023-05-16T11:04:45;100744.73;;;12.85;57.24
80644;BME280;70010;60.224;24.712;2023-05-16T11:07:06;100732.66;;;14.41;54.18
80644;BME280;70010;60.224;24.712;2023-05-16T11:09:29;100740.12;;;12.24;58.85
80644;BME280;70010;60.224;24.712;2023-05-16T11:11:59;100732.25;;;13.78;55.87
80644;BME280;70010;60.224;24.712;2023-05-16T11:14:22;100732.90;;;12.73;58.07
80644;BME280;70010;60.224;24.712;2023-05-16T11:16:48;100736.05;;;12.56;58.74
80644;BME280;70010;60.224;24.712;2023-05-16T11:19:12;100729.20;;;13.08;57.63
80644;BME280;70010;60.224;24.712;2023-05-16T11:26:30;100731.83;;;12.59;60.28
80644;BME280;70010;60.224;24.712;2023-05-16T11:28:54;100721.28;;;12.47;59.46
80644;BME280;70010;60.224;24.712;2023-05-16T11:31:19;100730.68;;;11.09;65.34
80644;BME280;70010;60.224;24.712;2023-05-16T11:33:44;100723.09;;;12.13;61.97
80644;BME280;70010;60.224;24.712;2023-05-16T11:36:09;100717.82;;;14.05;54.76
80644;BME280;70010;60.224;24.712;2023-05-16T11:38:34;100720.36;;;12.44;59.72
80644;BME280;70010;60.224;24.712;2023-05-16T11:41:03;100710.32;;;13.69;55.39
80644;BME280;70010;60.224;24.712;2023-05-16T11:43:25;100710.37;;;12.62;57.68
80644;BME280;70010;60.224;24.712;2023-05-16T11:45:53;100713.08;;;12.72;57.31
80644;BME280;70010;60.224;24.712;2023-05-16T11:48:16;100710.24;;;13.34;55.62
80644;BME280;70010;60.224;24.712;2023-05-16T11:50:41;100708.92;;;12.96;55.55
80644;BME280;70010;60.224;24.712;2023-05-16T11:53:07;100713.24;;;12.18;58.54
80644;BME280;70010;60.224;24.712;2023-05-16T11:55:32;100707.72;;;11.07;63.35
80644;BME280;70010;60.224;24.712;2023-05-16T11:57:58;100704.11;;;12.87;58.57
80644;BME280;70010;60.224;24.712;2023-05-16T12:00:25;100694.53;;;13.38;55.77
80644;BME280;70010;60.224;24.712;2023-05-16T12:02:49;100692.53;;;11.41;60.66
80644;BME280;70010;60.224;24.712;2023-05-16T12:05:16;100692.25;;;12.46;57.54
80644;BME280;70010;60.224;24.712;2023-05-16T12:07:42;100694.25;;;13.14;55.98
80644;BME280;70010;60.224;24.712;2023-05-16T12:10:07;100695.66;;;10.69;65.46
80644;BME280;70010;60.224;24.712;2023-05-16T12:12:32;100697.38;;;12.57;58.16
80644;BME280;70010;60.224;24.712;2023-05-16T12:14:57;100684.87;;;11.44;61.65
80644;BME280;70010;60.224;24.712;2023-05-16T12:17:22;100683.58;;;12.24;57.64
80644;BME280;70010;60.224;24.712;2023-05-16T12:19:48;100688.40;;;11.85;59.30
80644;BME280;70010;60.224;24.712;2023-05-16T12:22:15;100692.58;;;11.22;62.36
80644;BME280;70010;60.224;24.712;2023-05-16T12:24:39;100693.76;;;10.88;63.37
80644;BME280;70010;60.224;24.712;2023-05-16T12:27:04;100687.47;;;12.40;58.34
80644;BME280;70010;60.224;24.712;2023-05-16T12:29:30;100687.44;;;11.41;61.21
80644;BME280;70010;60.224;24.712;2023-05-16T12:31:54;100684.87;;;10.87;62.09
80644;BME280;70010;60.224;24.712;2023-05-16T12:34:20;100682.28;;;10.29;66.12
80644;BME280;70010;60.224;24.712;2023-05-16T12:36:50;100675.43;;;11.38;62.03